createdAt,value
2022-10-09T00:00:06.700Z,101472.13
2022-10-09T00:02:09.768Z,101464.28
2022-10-09T00:04:11.480Z,101467.56
2022-10-09T00:06:19.939Z,101462.41
2022-10-09T00:08:21.468Z,101465.69
2022-10-09T00:10:23.154Z,101458.88
2022-10-09T00:12:24.833Z,101457.53
2022-10-09T00:14:26.405Z,101453.75
2022-10-09T00:16:28.699Z,101460.53
2022-10-09T00:18:31.951Z,101460.03
2022-10-09T00:20:36.253Z,101448.91
2022-10-09T00:22:38.045Z,101450.03
2022-10-09T00:24:39.756Z,101445.38
2022-10-09T00:26:41.303Z,101449.50
2022-10-09T00:28:43.074Z,101452.47
2022-10-09T00:30:44.684Z,101445.16
2022-10-09T00:32:46.536Z,101450.06
2022-10-09T00:34:51.318Z,101447.09
2022-10-09T00:36:52.897Z,101442.25
2022-10-09T00:38:55.813Z,101448.22
2022-10-09T00:40:57.410Z,101446.91
2022-10-09T00:42:59.561Z,101447.72
2022-10-09T00:45:02.724Z,101443.72
2022-10-09T00:47:04.610Z,101441.81
2022-10-09T00:49:14.999Z,101445.38
2022-10-09T00:51:18.076Z,101447.59
2022-10-09T00:53:26.265Z,101447.31
2022-10-09T00:55:30.481Z,101447.84
2022-10-09T00:57:33.327Z,101443.03
2022-10-09T00:59:35.637Z,101447.38
2022-10-09T01:01:38.540Z,101444.34
2022-10-09T01:03:40.127Z,101441.34
2022-10-09T01:05:47.917Z,101439.47
2022-10-09T01:07:59.426Z,101431.88
2022-10-09T01:10:09.340Z,101438.13
2022-10-09T01:12:19.689Z,101432.47
2022-10-09T01:14:26.251Z,101438.75
2022-10-09T01:16:32.205Z,101436.06
2022-10-09T01:18:40.753Z,101430.09
2022-10-09T01:20:48.803Z,101437.69
2022-10-09T01:23:09.812Z,101429.84
2022-10-09T01:25:19.627Z,101436.91
2022-10-09T01:27:24.285Z,101435.59
2022-10-09T01:29:31.763Z,101430.44
2022-10-09T01:31:38.532Z,101430.72
2022-10-09T01:33:40.698Z,101428.28
2022-10-09T01:35:43.930Z,101426.72
2022-10-09T01:37:47.418Z,101429.75
2022-10-09T01:39:50.191Z,101425.72
2022-10-09T01:41:54.643Z,101423.25
2022-10-09T01:43:57.688Z,101429.81
2022-10-09T01:46:18.787Z,101424.94
2022-10-09T01:48:24.769Z,101421.72
2022-10-09T01:50:32.543Z,101413.09
2022-10-09T01:52:41.530Z,101420.94
2022-10-09T01:54:52.105Z,101411.19
2022-10-09T01:56:55.722Z,101416.84
2022-10-09T01:59:02.319Z,101414.09
2022-10-09T02:01:07.094Z,101407.88
2022-10-09T02:03:13.162Z,101405.16
2022-10-09T02:05:19.487Z,101416.31
2022-10-09T02:07:25.851Z,101411.44
2022-10-09T02:09:28.401Z,101409.28
2022-10-09T02:11:32.019Z,101406.31
2022-10-09T02:13:36.032Z,101407.97
2022-10-09T02:15:45.847Z,101400.94
2022-10-09T02:17:51.370Z,101400.41
2022-10-09T02:19:58.773Z,101396.34
2022-10-09T02:22:08.020Z,101396.84
2022-10-09T02:24:17.550Z,101391.97
2022-10-09T02:26:21.624Z,101387.63
2022-10-09T02:28:23.253Z,101399.56
2022-10-09T02:30:32.549Z,101387.41
2022-10-09T02:32:35.450Z,101389.56
2022-10-09T02:34:37.144Z,101392.81
2022-10-09T02:36:39.634Z,101393.66
2022-10-09T02:38:43.928Z,101381.97
2022-10-09T02:40:45.435Z,101376.56
2022-10-09T02:42:47.241Z,101387.69
2022-10-09T02:44:49.085Z,101375.47
2022-10-09T02:46:50.608Z,101382.81
2022-10-09T02:48:53.757Z,101381.19
2022-10-09T02:50:55.310Z,101384.97
2022-10-09T02:52:56.748Z,101384.44
2022-10-09T02:54:58.243Z,101380.91
2022-10-09T02:56:59.886Z,101372.22
2022-10-09T02:59:01.394Z,101375.75
2022-10-09T03:01:04.028Z,101386.59
2022-10-09T03:03:05.647Z,101380.41
2022-10-09T03:05:09.892Z,101379.81
2022-10-09T03:07:11.453Z,101379.03
2022-10-09T03:09:12.963Z,101374.41
2022-10-09T03:11:16.271Z,101375.22
2022-10-09T03:13:17.745Z,101376.31
2022-10-09T03:15:19.297Z,101376.31
2022-10-09T03:17:20.891Z,101366.00
2022-10-09T03:19:22.379Z,101376.56
2022-10-09T03:21:27.216Z,101367.09
2022-10-09T03:23:28.682Z,101372.28
2022-10-09T03:25:30.782Z,101374.44
2022-10-09T03:27:32.398Z,101371.97
2022-10-09T03:29:33.874Z,101377.09
2022-10-09T03:31:52.794Z,101365.47
2022-10-09T03:33:54.909Z,101374.97
2022-10-09T03:35:56.618Z,101381.75
2022-10-09T03:37:59.477Z,101372.00
2022-10-09T03:40:01.022Z,101374.44
2022-10-09T03:42:02.596Z,101373.91
2022-10-09T03:44:04.397Z,101374.75
2022-10-09T03:46:07.132Z,101379.91
2022-10-09T03:48:10.069Z,101381.00
2022-10-09T03:50:11.609Z,101382.63
2022-10-09T03:52:13.117Z,101381.28
2022-10-09T03:54:16.071Z,101382.66
2022-10-09T03:56:17.645Z,101382.13
2022-10-09T03:58:19.209Z,101381.84
2022-10-09T04:00:20.692Z,101381.06
2022-10-09T04:02:22.346Z,101382.13
2022-10-09T04:04:24.013Z,101387.56
2022-10-09T04:06:25.713Z,101394.88
2022-10-09T04:08:27.310Z,101391.38
2022-10-09T04:10:30.270Z,101387.56
2022-10-09T04:12:31.771Z,101393.78
2022-10-09T04:14:33.212Z,101382.97
2022-10-09T04:16:34.830Z,101387.03
2022-10-09T04:18:36.444Z,101382.44
2022-10-09T04:20:37.948Z,101387.56
2022-10-09T04:22:39.539Z,101383.28
2022-10-09T04:24:41.087Z,101378.09
2022-10-09T04:26:44.140Z,101380.56
2022-10-09T04:28:45.691Z,101379.19
2022-10-09T04:30:47.392Z,101380.53
2022-10-09T04:32:49.133Z,101377.56
2022-10-09T04:34:50.924Z,101372.16
2022-10-09T04:36:52.569Z,101378.38
2022-10-09T04:38:54.271Z,101376.75
2022-10-09T04:40:56.934Z,101378.94
2022-10-09T04:42:59.818Z,101380.84
2022-10-09T04:45:01.609Z,101375.69
2022-10-09T04:47:03.183Z,101378.13
2022-10-09T04:49:04.696Z,101380.56
2022-10-09T04:51:07.091Z,101379.22
2022-10-09T04:53:08.743Z,101379.50
2022-10-09T04:55:10.400Z,101370.00
2022-10-09T04:57:11.907Z,101373.25
2022-10-09T04:59:14.766Z,101371.38
2022-10-09T05:01:18.889Z,101368.41
2022-10-09T05:03:20.489Z,101365.16
2022-10-09T05:05:22.030Z,101364.59
2022-10-09T05:07:23.924Z,101364.88
2022-10-09T05:09:25.413Z,101362.69
2022-10-09T05:11:27.253Z,101368.09
2022-10-09T05:13:29.861Z,101375.13
2022-10-09T05:15:36.375Z,101366.78
2022-10-09T05:17:37.932Z,101371.38
2022-10-09T05:19:39.514Z,101377.31
2022-10-09T05:21:41.189Z,101379.78
2022-10-09T05:23:43.401Z,101378.13
2022-10-09T05:25:54.053Z,101382.19
2022-10-09T05:27:55.644Z,101374.34
2022-10-09T05:29:57.118Z,101374.88
2022-10-09T05:31:59.962Z,101368.13
2022-10-09T05:34:01.707Z,101373.53
2022-10-09T05:36:05.461Z,101381.94
2022-10-09T05:38:07.241Z,101378.41
2022-10-09T05:40:09.408Z,101379.22
2022-10-09T05:42:11.048Z,101380.81
2022-10-09T05:44:12.538Z,101380.81
2022-10-09T05:46:16.419Z,101376.47
2022-10-09T05:48:19.979Z,101381.34
2022-10-09T05:50:21.446Z,101386.22
2022-10-09T05:52:23.057Z,101385.91
2022-10-09T05:54:24.604Z,101382.09
2022-10-09T05:56:27.875Z,101389.13
2022-10-09T05:58:29.548Z,101376.69
2022-10-09T06:00:31.164Z,101380.75
2022-10-09T06:02:32.714Z,101376.44
2022-10-09T06:04:35.631Z,101386.50
2022-10-09T06:06:38.345Z,101378.38
2022-10-09T06:08:39.936Z,101373.72
2022-10-09T06:10:41.412Z,101376.16
2022-10-09T06:12:42.899Z,101372.91
2022-10-09T06:14:44.381Z,101369.66
2022-10-09T06:16:46.215Z,101370.50
2022-10-09T06:18:49.410Z,101379.19
2022-10-09T06:20:56.357Z,101377.28
2022-10-09T06:22:57.934Z,101386.22
2022-10-09T06:24:59.470Z,101379.44
2022-10-09T06:27:00.980Z,101375.69
2022-10-09T06:29:03.614Z,101386.22
2022-10-09T06:31:07.157Z,101383.53
2022-10-09T06:33:08.650Z,101389.22
2022-10-09T06:35:10.201Z,101387.31
2022-10-09T06:37:13.151Z,101389.22
2022-10-09T06:39:15.282Z,101389.22
2022-10-09T06:41:18.357Z,101388.13
2022-10-09T06:43:19.875Z,101388.16
2022-10-09T06:45:21.453Z,101381.38
2022-10-09T06:47:23.019Z,101384.91
2022-10-09T06:49:24.679Z,101391.94
2022-10-09T06:51:27.295Z,101391.41
2022-10-09T06:53:30.599Z,101384.09
2022-10-09T06:55:32.558Z,101384.06
2022-10-09T06:57:34.374Z,101393.28
2022-10-09T06:59:35.857Z,101385.41
2022-10-09T07:01:37.537Z,101386.22
2022-10-09T07:03:40.562Z,101387.84
2022-10-09T07:05:42.293Z,101391.63
2022-10-09T07:07:43.823Z,101390.53
2022-10-09T07:09:46.649Z,101392.16
2022-10-09T07:11:48.425Z,101388.06
2022-10-09T07:13:51.661Z,101388.31
2022-10-09T07:15:53.192Z,101393.66
2022-10-09T07:17:54.718Z,101388.47
2022-10-09T07:19:56.336Z,101384.88
2022-10-09T07:21:58.058Z,101383.97
2022-10-09T07:24:00.114Z,101383.34
2022-10-09T07:26:09.957Z,101387.06
2022-10-09T07:28:11.520Z,101387.78
2022-10-09T07:30:13.297Z,101389.06
2022-10-09T07:32:17.941Z,101389.25
2022-10-09T07:34:21.863Z,101386.75
2022-10-09T07:36:23.833Z,101381.22
2022-10-09T07:38:25.500Z,101384.91
2022-10-09T07:40:27.144Z,101376.66
2022-10-09T07:42:30.230Z,101378.16
2022-10-09T07:44:31.779Z,101379.09
2022-10-09T07:46:34.206Z,101371.69
2022-10-09T07:48:36.285Z,101376.66
2022-10-09T07:50:38.236Z,101378.38
2022-10-09T07:52:39.964Z,101377.66
2022-10-09T07:54:41.495Z,101376.34
2022-10-09T07:56:43.077Z,101369.94
2022-10-09T07:58:49.222Z,101380.88
2022-10-09T08:00:50.819Z,101379.13
2022-10-09T08:02:53.119Z,101376.16
2022-10-09T08:04:54.991Z,101374.59
2022-10-09T08:06:56.503Z,101370.81
2022-10-09T08:09:00.313Z,101373.88
2022-10-09T08:11:09.232Z,101372.78
2022-10-09T08:13:10.825Z,101370.88
2022-10-09T08:15:15.480Z,101366.53
2022-10-09T08:17:17.233Z,101358.13
2022-10-09T08:19:18.841Z,101363.88
2022-10-09T08:21:20.845Z,101358.94
2022-10-09T08:23:22.323Z,101354.56
2022-10-09T08:25:24.044Z,101357.53
2022-10-09T08:27:25.649Z,101355.06
2022-10-09T08:29:27.286Z,101347.97
2022-10-09T08:31:30.389Z,101345.78
2022-10-09T08:33:31.966Z,101348.56
2022-10-09T08:35:34.656Z,101356.25
2022-10-09T08:37:36.623Z,101345.59
2022-10-09T08:39:38.127Z,101352.13
2022-10-09T08:41:43.656Z,101349.59
2022-10-09T08:43:48.117Z,101348.22
2022-10-09T08:45:51.483Z,101340.06
2022-10-09T08:48:00.574Z,101340.44
2022-10-09T08:50:11.477Z,101341.91
2022-10-09T08:52:24.619Z,101336.53
2022-10-09T08:54:33.194Z,101340.44
2022-10-09T08:56:35.492Z,101338.44
2022-10-09T08:58:39.780Z,101336.84
2022-10-09T09:00:45.776Z,101337.25
2022-10-09T09:03:11.312Z,101333.69
2022-10-09T09:05:24.418Z,101331.28
2022-10-09T09:07:33.295Z,101329.56
2022-10-09T09:09:45.949Z,101326.53
2022-10-09T09:12:00.510Z,101321.28
2022-10-09T09:14:12.651Z,101318.06
2022-10-09T09:16:24.967Z,101319.53
2022-10-09T09:18:42.519Z,101315.66
2022-10-09T09:20:52.054Z,101309.22
2022-10-09T09:22:56.737Z,101316.47
2022-10-09T09:25:00.090Z,101311.63
2022-10-09T09:27:04.277Z,101298.09
2022-10-09T09:29:05.861Z,101305.50
2022-10-09T09:31:15.056Z,101305.47
2022-10-09T09:33:23.002Z,101308.81
2022-10-09T09:35:32.716Z,101302.63
2022-10-09T09:37:34.591Z,101303.81
2022-10-09T09:40:34.493Z,101294.09
2022-10-09T09:42:07.665Z,101295.03
2022-10-09T09:44:11.348Z,101284.72
2022-10-09T09:46:20.584Z,101287.75
2022-10-09T09:48:32.135Z,101284.59
2022-10-09T09:51:04.991Z,101288.56
2022-10-09T09:53:04.114Z,101283.59
2022-10-09T09:55:06.666Z,101278.09
2022-10-09T09:57:15.822Z,101274.03
2022-10-09T09:59:30.997Z,101270.97
2022-10-09T10:01:34.000Z,101268.34
2022-10-09T10:03:36.199Z,101268.66
2022-10-09T10:05:40.979Z,101261.22
2022-10-09T10:07:42.750Z,101258.13
2022-10-09T10:09:44.634Z,101255.50
2022-10-09T10:11:52.211Z,101251.81
2022-10-09T10:13:54.010Z,101256.94
2022-10-09T10:15:57.828Z,101245.66
2022-10-09T10:18:02.156Z,101252.94
2022-10-09T10:20:06.386Z,101244.53
2022-10-09T10:22:23.061Z,101237.69
2022-10-09T10:24:30.587Z,101242.09
2022-10-09T10:26:35.722Z,101232.78
2022-10-09T10:28:46.583Z,101230.16
2022-10-09T10:30:50.305Z,101225.97
2022-10-09T10:32:58.810Z,101226.19
2022-10-09T10:35:04.393Z,101219.47
2022-10-09T10:37:25.873Z,101211.28
2022-10-09T10:39:34.010Z,101219.53
2022-10-09T10:41:41.326Z,101211.50
2022-10-09T10:43:44.695Z,101203.19
2022-10-09T10:45:58.540Z,101201.28
2022-10-09T10:48:02.696Z,101193.63
2022-10-09T10:50:12.123Z,101202.31
2022-10-09T10:52:26.792Z,101192.38
2022-10-09T10:54:39.024Z,101191.25
2022-10-09T10:56:44.759Z,101192.69
2022-10-09T10:58:55.935Z,101182.56
2022-10-09T11:01:16.419Z,101185.59
2022-10-09T11:03:32.278Z,101185.00
2022-10-09T11:05:43.825Z,101176.78
2022-10-09T11:08:00.011Z,101174.88
2022-10-09T11:10:15.741Z,101177.69
2022-10-09T11:12:46.587Z,101171.28
2022-10-09T11:14:54.288Z,101167.59
2022-10-09T11:17:05.420Z,101162.00
2022-10-09T11:19:25.544Z,101156.31
2022-10-09T11:21:43.608Z,101162.00
2022-10-09T11:24:07.943Z,101156.00
2022-10-09T11:26:24.634Z,101147.03
2022-10-09T11:28:34.278Z,101155.94
2022-10-09T11:30:42.762Z,101142.28
2022-10-09T11:32:54.410Z,101144.31
2022-10-09T11:35:01.802Z,101134.75
2022-10-09T11:37:08.885Z,101135.34
2022-10-09T11:39:15.063Z,101129.06
2022-10-09T11:41:17.475Z,101137.75
2022-10-09T11:43:37.249Z,101141.22
2022-10-09T11:45:48.003Z,101134.81
2022-10-09T11:48:00.722Z,101125.00
2022-10-09T11:50:26.584Z,101121.59
2022-10-09T11:52:38.653Z,101112.63
2022-10-09T11:54:41.812Z,101113.41
2022-10-09T11:56:53.551Z,101109.44
2022-10-09T11:58:56.585Z,101111.06
2022-10-09T12:01:13.323Z,101092.72
2022-10-09T12:03:30.844Z,101097.25
2022-10-09T12:05:38.523Z,101091.63
2022-10-09T12:07:40.959Z,101091.50
2022-10-09T12:09:48.224Z,101095.09
2022-10-09T12:12:01.677Z,101090.75
2022-10-09T12:14:06.088Z,101089.78
2022-10-09T12:16:10.505Z,101084.78
2022-10-09T12:20:38.190Z,101076.03
2022-10-09T12:22:52.438Z,101078.09
2022-10-09T12:25:08.526Z,101073.00
2022-10-09T12:27:20.564Z,101065.50
2022-10-09T12:29:27.405Z,101063.03
2022-10-09T12:31:33.217Z,101060.19
2022-10-09T12:33:39.644Z,101051.22
2022-10-09T12:35:45.139Z,101047.19
2022-10-09T12:37:46.675Z,101039.56
2022-10-09T12:39:49.839Z,101046.47
2022-10-09T12:41:57.633Z,101041.16
2022-10-09T12:44:00.072Z,101041.41
2022-10-09T12:46:02.186Z,101038.66
2022-10-09T12:48:11.132Z,101028.69
2022-10-09T12:50:21.950Z,101031.34
2022-10-09T12:52:23.647Z,101027.47
2022-10-09T12:54:25.896Z,101023.19
2022-10-09T12:56:31.235Z,101023.25
2022-10-09T12:58:35.921Z,101013.16
2022-10-09T13:00:37.735Z,101003.69
2022-10-09T13:02:40.247Z,101002.09
2022-10-09T13:04:43.390Z,101002.47
2022-10-09T13:06:47.891Z,100996.06
2022-10-09T13:08:52.849Z,100991.28
2022-10-09T13:10:55.474Z,100983.53
2022-10-09T13:12:58.503Z,100983.44
2022-10-09T13:15:03.381Z,100980.47
2022-10-09T13:17:04.968Z,100981.75
2022-10-09T13:19:22.136Z,100977.75
2022-10-09T13:21:27.311Z,100964.75
2022-10-09T13:23:32.249Z,100964.06
2022-10-09T13:25:37.269Z,100962.56
2022-10-09T13:27:39.774Z,100957.56
2022-10-09T13:29:42.183Z,100961.81
2022-10-09T13:31:45.094Z,100960.75
2022-10-09T13:33:47.743Z,100959.44
2022-10-09T13:35:49.334Z,100958.97
2022-10-09T13:37:53.428Z,100953.47
2022-10-09T13:39:56.843Z,100961.72
2022-10-09T13:41:59.697Z,100950.84
2022-10-09T13:44:01.264Z,100949.25
2022-10-09T13:46:02.824Z,100944.41
2022-10-09T13:48:05.862Z,100942.28
2022-10-09T13:50:08.060Z,100939.28
2022-10-09T13:52:09.938Z,100930.59
2022-10-09T13:54:11.623Z,100931.09
2022-10-09T13:56:13.318Z,100928.72
2022-10-09T13:58:14.925Z,100922.41
2022-10-09T14:00:16.870Z,100921.50
2022-10-09T14:02:18.404Z,100922.94
2022-10-09T14:04:21.844Z,100921.97
2022-10-09T14:06:23.399Z,100913.72
2022-10-09T14:08:25.048Z,100907.19
2022-10-09T14:10:26.696Z,100910.53
2022-10-09T14:12:28.356Z,100908.94
2022-10-09T14:14:29.984Z,100911.97
2022-10-09T14:16:32.066Z,100904.53
2022-10-09T14:18:34.259Z,100904.53
2022-10-09T14:20:37.323Z,100902.28
2022-10-09T14:22:39.030Z,100898.88
2022-10-09T14:24:41.101Z,100892.94
2022-10-09T14:26:43.238Z,100901.63
2022-10-09T14:28:46.901Z,100888.34
2022-10-09T14:30:48.510Z,100896.84
2022-10-09T14:32:50.478Z,100894.38
2022-10-09T14:34:54.942Z,100889.38
2022-10-09T14:36:57.854Z,100886.06
2022-10-09T14:39:00.102Z,100881.03
2022-10-09T14:41:01.683Z,100883.13
2022-10-09T14:43:03.439Z,100879.78
2022-10-09T14:45:06.421Z,100881.03
2022-10-09T14:47:08.041Z,100874.63
2022-10-09T14:49:10.699Z,100879.69
2022-10-09T14:51:14.131Z,100870.75
2022-10-09T14:53:17.329Z,100865.16
2022-10-09T14:55:19.022Z,100860.03
2022-10-09T14:57:20.588Z,100864.50
2022-10-09T14:59:22.361Z,100864.38
2022-10-09T15:01:24.092Z,100856.63
2022-10-09T15:03:27.449Z,100849.16
2022-10-09T15:05:29.079Z,100848.97
2022-10-09T15:07:30.696Z,100843.81
2022-10-09T15:09:33.698Z,100846.81
2022-10-09T15:11:44.096Z,100842.09
2022-10-09T15:13:45.647Z,100839.25
2022-10-09T15:15:47.356Z,100834.34
2022-10-09T15:17:49.240Z,100837.06
2022-10-09T15:19:51.081Z,100835.47
2022-10-09T15:21:52.757Z,100829.06
2022-10-09T15:23:55.806Z,100832.72
2022-10-09T15:25:59.330Z,100830.34
2022-10-09T15:28:01.367Z,100827.59
2022-10-09T15:30:03.898Z,100835.72
2022-10-09T15:32:05.524Z,100826.78
2022-10-09T15:34:08.682Z,100819.84
2022-10-09T15:36:10.516Z,100817.78
2022-10-09T15:38:14.058Z,100821.47
2022-10-09T15:40:17.475Z,100818.25
2022-10-09T15:42:20.531Z,100813.22
2022-10-09T15:44:22.210Z,100813.00
2022-10-09T15:46:24.243Z,100811.66
2022-10-09T15:48:25.744Z,100809.47
2022-10-09T15:50:27.296Z,100803.16
2022-10-09T15:52:29.030Z,100801.00
2022-10-09T15:54:30.627Z,100795.19
2022-10-09T15:56:35.985Z,100804.00
2022-10-09T15:58:44.865Z,100801.59
2022-10-09T16:00:48.887Z,100795.88
2022-10-09T16:02:50.805Z,100790.50
2022-10-09T16:04:52.476Z,100788.59
2022-10-09T16:06:54.155Z,100791.22
2022-10-09T16:08:56.814Z,100782.06
2022-10-09T16:10:58.588Z,100786.16
2022-10-09T16:13:00.736Z,100788.22
2022-10-09T16:15:04.122Z,100788.59
2022-10-09T16:17:11.016Z,100788.13
2022-10-09T16:19:12.906Z,100788.25
2022-10-09T16:21:17.061Z,100779.88
2022-10-09T16:23:18.833Z,100787.66
2022-10-09T16:25:20.486Z,100780.91
2022-10-09T16:27:22.154Z,100776.56
2022-10-09T16:29:23.862Z,100785.16
2022-10-09T16:31:28.996Z,100783.66
2022-10-09T16:33:30.913Z,100779.88
2022-10-09T16:35:32.502Z,100776.00
2022-10-09T16:37:34.441Z,100781.94
2022-10-09T16:39:36.353Z,100778.28
2022-10-09T16:41:41.791Z,100778.63
2022-10-09T16:43:44.981Z,100789.25
2022-10-09T16:45:46.673Z,100781.47
2022-10-09T16:47:50.215Z,100780.69
2022-10-09T16:49:52.581Z,100783.75
2022-10-09T16:51:54.454Z,100780.56
2022-10-09T16:53:58.806Z,100780.91
2022-10-09T16:56:07.535Z,100780.78
2022-10-09T16:58:09.354Z,100779.19
2022-10-09T17:00:11.877Z,100776.34
2022-10-09T17:02:14.886Z,100773.59
2022-10-09T17:04:17.929Z,100778.25
2022-10-09T17:06:19.699Z,100781.69
2022-10-09T17:08:22.509Z,100783.03
2022-10-09T17:10:24.168Z,100788.53
2022-10-09T17:12:26.346Z,100789.66
2022-10-09T17:14:28.049Z,100782.13
2022-10-09T17:16:33.104Z,100790.00
2022-10-09T17:18:35.671Z,100792.28
2022-10-09T17:20:41.319Z,100781.78
2022-10-09T17:22:46.132Z,100786.69
2022-10-09T17:24:48.163Z,100790.44
2022-10-09T17:26:49.914Z,100787.59
2022-10-09T17:28:52.044Z,100784.03
2022-10-09T17:30:54.288Z,100793.91
2022-10-09T17:32:56.010Z,100782.16
2022-10-09T17:34:57.663Z,100781.22
2022-10-09T17:37:00.650Z,100784.88
2022-10-09T17:39:03.519Z,100782.13
2022-10-09T17:41:06.328Z,100779.75
2022-10-09T17:43:08.483Z,100782.66
2022-10-09T17:45:10.326Z,100788.91
2022-10-09T17:47:12.094Z,100783.22
2022-10-09T17:49:13.772Z,100785.94
2022-10-09T17:51:20.253Z,100785.63
2022-10-09T17:53:24.142Z,100785.28
2022-10-09T17:55:26.002Z,100785.81
2022-10-09T17:57:27.523Z,100787.63
2022-10-09T17:59:29.334Z,100784.28
2022-10-09T18:01:34.143Z,100777.91
2022-10-09T18:03:36.444Z,100784.56
2022-10-09T18:05:41.396Z,100774.78
2022-10-09T18:07:42.968Z,100775.31
2022-10-09T18:09:45.881Z,100777.91
2022-10-09T18:11:47.926Z,100789.31
2022-10-09T18:13:49.670Z,100777.50
2022-10-09T18:15:54.183Z,100788.59
2022-10-09T18:17:55.862Z,100780.03
2022-10-09T18:19:57.447Z,100782.78
2022-10-09T18:21:59.210Z,100780.56
2022-10-09T18:24:00.953Z,100777.34
2022-10-09T18:26:09.385Z,100777.53
2022-10-09T18:28:12.584Z,100776.72
2022-10-09T18:30:14.462Z,100773.22
2022-10-09T18:32:16.563Z,100771.59
2022-10-09T18:34:18.536Z,100773.06
2022-10-09T18:36:22.628Z,100764.28
2022-10-09T18:38:24.524Z,100762.19
2022-10-09T18:40:26.684Z,100762.97
2022-10-09T18:42:30.057Z,100770.25
2022-10-09T18:44:33.037Z,100763.22
2022-10-09T18:46:38.354Z,100757.97
2022-10-09T18:48:41.726Z,100756.69
2022-10-09T18:50:44.785Z,100760.53
2022-10-09T18:52:47.240Z,100756.56
2022-10-09T18:54:51.272Z,100754.81
2022-10-09T18:56:53.247Z,100760.94
2022-10-09T18:58:57.517Z,100755.69
2022-10-09T19:00:59.219Z,100752.31
2022-10-09T19:03:00.734Z,100749.28
2022-10-09T19:05:02.720Z,100757.47
2022-10-09T19:07:04.415Z,100752.31
2022-10-09T19:09:06.052Z,100752.63
2022-10-09T19:11:07.755Z,100741.41
2022-10-09T19:13:09.314Z,100749.41
2022-10-09T19:15:12.565Z,100746.69
2022-10-09T19:17:14.770Z,100742.53
2022-10-09T19:19:17.390Z,100735.94
2022-10-09T19:21:20.093Z,100742.78
2022-10-09T19:23:21.872Z,100738.81
2022-10-09T19:25:24.744Z,100738.16
2022-10-09T19:27:27.064Z,100738.97
2022-10-09T19:29:28.720Z,100733.84
2022-10-09T19:31:32.087Z,100737.84
2022-10-09T19:33:34.063Z,100738.66
2022-10-09T19:35:35.688Z,100737.53
2022-10-09T19:37:39.148Z,100737.06
2022-10-09T19:39:40.743Z,100735.13
2022-10-09T19:41:42.329Z,100729.03
2022-10-09T19:43:44.032Z,100729.38
2022-10-09T19:45:46.247Z,100729.25
2022-10-09T19:47:53.561Z,100727.50
2022-10-09T19:49:56.017Z,100724.28
2022-10-09T19:51:57.823Z,100728.78
2022-10-09T19:54:01.744Z,100719.13
2022-10-09T19:56:09.574Z,100717.72
2022-10-09T19:58:11.127Z,100721.41
2022-10-09T20:00:13.565Z,100715.78
2022-10-09T20:02:15.228Z,100709.69
2022-10-09T20:04:18.177Z,100721.44
2022-10-09T20:06:19.754Z,100715.50
2022-10-09T20:08:21.341Z,100719.38
2022-10-09T20:10:22.965Z,100714.38
2022-10-09T20:24:18.800Z,100710.25
2022-10-09T20:26:21.458Z,100710.97
2022-10-09T20:28:23.086Z,100707.75
2022-10-09T20:30:24.746Z,100710.03
2022-10-09T20:32:26.249Z,100700.69
2022-10-09T20:34:27.876Z,100703.44
2022-10-09T20:36:31.532Z,100702.78
2022-10-09T20:38:33.204Z,100704.50
2022-10-09T20:40:36.550Z,100699.84
2022-10-09T20:42:38.405Z,100701.16
2022-10-09T20:44:40.002Z,100695.56
2022-10-09T20:46:42.377Z,100691.75
2022-10-09T20:48:45.884Z,100695.47
2022-10-09T20:50:47.531Z,100696.88
2022-10-09T20:52:49.410Z,100692.53
2022-10-09T20:54:51.219Z,100698.88
2022-10-09T20:56:54.170Z,100692.31
2022-10-09T20:58:56.751Z,100696.66
2022-10-09T21:01:03.974Z,100695.03
2022-10-09T21:03:07.392Z,100687.97
2022-10-09T21:05:12.016Z,100689.44
2022-10-09T21:07:13.722Z,100697.97
2022-10-09T21:09:15.252Z,100694.44
2022-10-09T21:11:17.845Z,100693.66
2022-10-09T21:13:20.944Z,100694.78
2022-10-09T21:15:22.468Z,100699.59
2022-10-09T21:17:23.988Z,100699.59
2022-10-09T21:19:25.739Z,100695.06
2022-10-09T21:21:28.582Z,100696.38
2022-10-09T21:23:30.204Z,100698.00
2022-10-09T21:25:32.205Z,100698.34
2022-10-09T21:27:33.797Z,100693.88
2022-10-09T21:29:37.325Z,100695.13
2022-10-09T21:31:38.849Z,100694.50
2022-10-09T21:33:40.417Z,100692.75
2022-10-09T21:35:43.711Z,100694.19
2022-10-09T21:37:45.253Z,100688.91
2022-10-09T21:39:46.740Z,100687.28
2022-10-09T21:41:48.451Z,100686.00
2022-10-09T21:43:50.053Z,100690.53
2022-10-09T21:45:53.107Z,100687.97
2022-10-09T21:47:56.323Z,100688.28
2022-10-09T21:49:57.959Z,100682.03
2022-10-09T21:51:59.496Z,100675.28
2022-10-09T21:54:00.939Z,100672.84
2022-10-09T21:56:02.775Z,100672.22
2022-10-09T21:58:07.846Z,100677.84
2022-10-09T22:00:10.520Z,100670.47
2022-10-09T22:02:16.587Z,100671.16
2022-10-09T22:04:19.800Z,100666.66
2022-10-09T22:06:21.418Z,100667.81
2022-10-09T22:08:23.535Z,100668.13
2022-10-09T22:10:25.112Z,100670.84
2022-10-09T22:12:26.770Z,100667.34
2022-10-09T22:14:28.342Z,100663.00
2022-10-09T22:16:30.080Z,100664.13
2022-10-09T22:18:33.219Z,100665.59
2022-10-09T22:20:39.096Z,100666.22
2022-10-09T22:22:40.539Z,100664.78
2022-10-09T22:24:42.177Z,100663.84
2022-10-09T22:26:43.927Z,100655.50
2022-10-09T22:28:45.877Z,100663.84
2022-10-09T22:30:47.416Z,100653.09
2022-10-09T22:32:49.172Z,100662.03
2022-10-09T22:34:52.591Z,100662.72
2022-10-09T22:36:54.172Z,100658.06
2022-10-09T22:38:57.452Z,100659.31
2022-10-09T22:41:03.603Z,100660.78
2022-10-09T22:43:05.204Z,100661.13
2022-10-09T22:45:08.233Z,100662.38
2022-10-09T22:47:09.731Z,100654.84
2022-10-09T22:49:14.310Z,100654.06
2022-10-09T22:51:18.454Z,100655.19
2022-10-09T22:53:20.040Z,100663.22
2022-10-09T22:55:21.546Z,100658.41
2022-10-09T22:57:23.092Z,100669.16
2022-10-09T22:59:27.757Z,100664.69
2022-10-09T23:01:31.533Z,100671.25
2022-10-09T23:03:33.279Z,100669.66
2022-10-09T23:05:36.541Z,100670.28
2022-10-09T23:07:39.445Z,100668.69
2022-10-09T23:09:40.979Z,100667.72
2022-10-09T23:11:43.315Z,100665.78
2022-10-09T23:13:46.000Z,100668.81
2022-10-09T23:15:47.580Z,100659.22
2022-10-09T23:17:51.717Z,100655.19
2022-10-09T23:19:53.220Z,100648.81
2022-10-09T23:21:54.955Z,100655.84
2022-10-09T23:23:58.391Z,100660.81
2022-10-09T23:26:05.565Z,100655.53
2022-10-09T23:28:07.213Z,100656.47
2022-10-09T23:30:09.850Z,100659.22
2022-10-09T23:32:11.396Z,100658.88
2022-10-09T23:34:15.858Z,100652.97
2022-10-09T23:36:20.087Z,100658.25
2022-10-09T23:38:21.611Z,100660.31
2022-10-09T23:40:24.549Z,100655.34
2022-10-09T23:42:26.048Z,100652.00
2022-10-09T23:44:29.850Z,100641.72
2022-10-09T23:46:34.917Z,100646.69
2022-10-09T23:48:36.640Z,100656.75